sim
Sign-in with your pilot id or email,
or register
Callsign
Passwort

Schedule Details

Flight Number: OEO2148
Departure: Nuremberg Airport (EDDN) at 04:10
Arrival: Thessaloniki International Airport (LGTS) at 06:30

Weather Information
Getting current METAR information for EDDN 230650Z VRB02KT CAVOK 16/12 Q1027 NOSIG
Getting current METAR information for LGTS 230650Z 28004KT CAVOK 29/19 Q1020 NOSIG

Schedule Frequency

Route Map